Time;durP1;ratioP1;P1;durP2;ratioP2;P2;SDS_P1;SDS_P2;PMS_P1;PMS_P2;Temp;Humidity;BMP_temperature;BMP_pressure;BME280_temperature;BME280_humidity;BME280_pressure;Samples;Min_cycle;Max_cycle;Signal;HPM_P1;HPM_P2
2022/10/30 00:00:15;;;;;;;7.03;4.43;;;20.20;72.00;;;;;;6236720;23;20020;-69
2022/10/30 00:02:41;;;;;;;8.48;4.32;;;20.20;72.00;;;;;;6236292;23;20055;-64
2022/10/30 00:05:07;;;;;;;7.65;4.20;;;20.20;72.00;;;;;;6235418;23;20016;-68
2022/10/30 00:07:32;;;;;;;9.10;4.63;;;20.20;71.90;;;;;;6238398;23;20028;-65
2022/10/30 00:09:58;;;;;;;10.57;4.70;;;20.20;71.90;;;;;;6237946;23;20027;-66
2022/10/30 00:12:24;;;;;;;7.75;4.40;;;20.20;71.90;;;;;;6237703;23;20024;-65
2022/10/30 00:14:49;;;;;;;9.45;4.50;;;20.20;71.90;;;;;;6236793;23;20550;-66
2022/10/30 00:17:15;;;;;;;8.82;4.72;;;20.10;71.90;;;;;;6236148;23;20020;-64
2022/10/30 00:19:41;;;;;;;8.55;4.43;;;20.10;71.90;;;;;;6208634;23;20123;-65
2022/10/30 00:22:06;;;;;;;6.90;4.32;;;20.20;71.90;;;;;;6235661;23;20047;-69
2022/10/30 00:24:32;;;;;;;9.30;4.25;;;20.20;71.90;;;;;;6236762;23;20028;-64
2022/10/30 00:26:57;;;;;;;6.57;4.43;;;20.20;71.90;;;;;;6237157;23;20019;-64
2022/10/30 00:29:25;;;;;;;8.80;4.57;;;20.10;71.80;;;;;;6236540;23;20543;-65
2022/10/30 00:31:51;;;;;;;8.83;4.33;;;20.10;71.90;;;;;;6210588;23;20016;-65
2022/10/30 00:34:16;;;;;;;10.10;4.30;;;20.20;71.80;;;;;;6235721;23;20034;-67
2022/10/30 00:36:42;;;;;;;8.60;4.63;;;20.20;71.80;;;;;;6238090;23;20352;-66
2022/10/30 00:39:07;;;;;;;6.30;4.18;;;20.10;71.70;;;;;;6236618;23;20365;-65
2022/10/30 00:41:33;;;;;;;11.68;4.72;;;20.10;71.70;;;;;;6237206;23;20336;-72
2022/10/30 00:43:58;;;;;;;8.40;4.05;;;20.20;71.80;;;;;;6237831;23;20016;-73
2022/10/30 00:46:32;;;;;;;8.50;4.63;;;20.20;71.80;;;;;;6236903;23;20348;-64
2022/10/30 00:49:15;;;;;;;7.60;4.38;;;20.10;71.70;;;;;;6235042;23;20016;-66
2022/10/30 00:51:46;;;;;;;8.82;4.07;;;20.10;71.70;;;;;;6236020;23;20101;-70
2022/10/30 00:54:17;;;;;;;9.30;4.43;;;20.10;71.70;;;;;;6237616;23;20016;-71
2022/10/30 00:56:45;;;;;;;7.60;4.70;;;20.10;71.70;;;;;;6235664;23;20019;-64
2022/10/30 00:59:15;;;;;;;8.30;4.32;;;20.10;71.70;;;;;;6237978;23;20359;-68
2022/10/30 01:01:43;;;;;;;9.38;4.30;;;20.10;71.70;;;;;;6209249;23;20016;-67
2022/10/30 01:04:10;;;;;;;7.05;4.38;;;20.10;71.70;;;;;;6234715;23;20504;-72
2022/10/30 01:06:39;;;;;;;8.68;3.88;;;20.10;71.60;;;;;;6235995;23;20028;-71
2022/10/30 01:09:05;;;;;;;8.45;4.45;;;20.10;71.60;;;;;;6235229;23;20456;-74
2022/10/30 01:11:31;;;;;;;10.98;4.60;;;20.10;71.60;;;;;;6238478;23;20020;-74
2022/10/30 01:14:02;;;;;;;7.28;4.18;;;20.10;71.60;;;;;;6236946;23;20087;-75
2022/10/30 01:17:09;;;;;;;9.00;4.13;;;20.10;71.50;;;;;;6238029;23;20020;-68
2022/10/30 01:19:53;;;;;;;8.23;4.15;;;20.20;71.40;;;;;;6162450;23;20150;-75
2022/10/30 01:22:37;;;;;;;7.30;3.90;;;20.20;71.50;;;;;;6209456;23;20020;-73
2022/10/30 01:25:02;;;;;;;8.68;4.32;;;20.10;71.30;;;;;;6237735;23;20024;-69
2022/10/30 01:27:58;;;;;;;8.77;4.20;;;20.20;71.30;;;;;;6237473;23;20019;-70
2022/10/30 01:30:59;;;;;;;10.73;4.25;;;20.20;71.20;;;;;;6235791;23;20016;-71
2022/10/30 01:33:43;;;;;;;8.25;4.20;;;20.20;71.10;;;;;;6156775;23;20348;-72
2022/10/30 01:36:20;;;;;;;6.40;3.78;;;20.20;71.20;;;;;;6237573;23;20456;-73
2022/10/30 01:38:58;;;;;;;9.80;4.15;;;20.20;71.20;;;;;;6236970;23;20051;-68
2022/10/30 01:41:24;;;;;;;7.35;3.80;;;20.20;71.10;;;;;;6238292;23;20383;-77
2022/10/30 01:44:02;;;;;;;9.63;4.28;;;20.20;71.10;;;;;;6210534;23;20050;-73
2022/10/30 01:46:28;;;;;;;;;;;20.10;71.10;;;;;;6238169;23;20017;-70
2022/10/30 01:49:15;;;;;;;7.20;3.88;;;20.20;71.10;;;;;;6235621;23;19926;-73
2022/10/30 01:52:02;;;;;;;10.00;4.33;;;20.20;71.10;;;;;;6209496;23;20142;-75
2022/10/30 01:55:04;;;;;;;7.97;3.78;;;20.20;71.20;;;;;;6236596;23;20061;-76
2022/10/30 01:57:45;;;;;;;8.90;3.97;;;20.20;71.20;;;;;;6236809;23;20536;-67
2022/10/30 02:00:14;;;;;;;7.00;4.00;;;20.20;71.10;;;;;;6207615;23;20618;-71
2022/10/30 02:02:40;;;;;;;6.35;3.90;;;20.20;71.10;;;;;;6209735;23;20103;-72
2022/10/30 02:05:09;;;;;;;12.05;3.97;;;20.20;71.20;;;;;;6208612;23;20577;-70
2022/10/30 02:07:35;;;;;;;9.23;4.05;;;20.20;71.10;;;;;;6212066;23;20019;-63
2022/10/30 02:10:00;;;;;;;7.65;3.50;;;20.20;71.20;;;;;;6238580;23;20035;-72
2022/10/30 02:12:26;;;;;;;9.75;4.03;;;20.20;71.20;;;;;;6213100;23;20013;-68
2022/10/30 02:14:56;;;;;;;7.13;3.97;;;20.10;71.10;;;;;;6238720;23;20016;-70
2022/10/30 02:17:26;;;;;;;6.45;3.90;;;20.10;71.10;;;;;;6238028;23;20020;-73
2022/10/30 02:19:51;;;;;;;6.53;3.22;;;20.20;71.10;;;;;;6237478;23;20012;-72
2022/10/30 02:22:17;;;;;;;7.38;3.60;;;20.20;71.10;;;;;;6237086;23;20310;-72
2022/10/30 02:24:43;;;;;;;8.77;3.97;;;20.10;71.10;;;;;;6239623;23;20012;-70
2022/10/30 02:27:09;;;;;;;7.95;3.78;;;20.20;71.10;;;;;;6236429;23;20472;-73
2022/10/30 02:29:35;;;;;;;6.82;3.60;;;20.10;71.00;;;;;;6240226;23;20051;-71
2022/10/30 02:32:01;;;;;;;9.85;3.88;;;20.10;70.90;;;;;;6211568;23;20016;-71
2022/10/30 02:34:27;;;;;;;7.82;3.65;;;20.10;70.90;;;;;;6237056;23;20030;-72
2022/10/30 02:36:53;;;;;;;7.30;4.22;;;20.10;70.90;;;;;;6238678;23;20445;-71
2022/10/30 02:39:20;;;;;;;6.32;3.50;;;20.10;70.90;;;;;;6238017;23;20019;-67
2022/10/30 02:41:46;;;;;;;11.35;4.10;;;20.10;70.90;;;;;;6238469;23;20030;-72
2022/10/30 02:44:11;;;;;;;6.13;3.47;;;20.10;70.80;;;;;;6237395;23;20464;-72
2022/10/30 02:46:37;;;;;;;6.15;4.03;;;20.10;70.80;;;;;;6238505;23;20090;-71
2022/10/30 02:49:03;;;;;;;5.50;3.55;;;20.20;70.90;;;;;;6237047;23;20023;-70
2022/10/30 02:51:30;;;;;;;7.47;3.63;;;20.10;70.80;;;;;;6238164;23;20019;-70
2022/10/30 02:53:57;;;;;;;5.30;3.60;;;20.10;70.80;;;;;;6209861;23;20468;-68
2022/10/30 02:56:22;;;;;;;7.97;3.70;;;20.10;70.80;;;;;;6236749;23;20024;-69
2022/10/30 02:58:48;;;;;;;6.60;3.55;;;20.10;70.80;;;;;;6238994;23;20062;-71
2022/10/30 03:01:16;;;;;;;6.95;3.70;;;20.10;70.80;;;;;;6238281;23;20020;-72
2022/10/30 03:03:42;;;;;;;6.93;4.15;;;20.10;70.70;;;;;;6238213;23;20106;-71
2022/10/30 03:06:11;;;;;;;5.47;3.65;;;20.10;70.70;;;;;;6235433;23;20082;-71
2022/10/30 03:08:37;;;;;;;5.22;3.53;;;20.10;70.70;;;;;;6238568;23;20024;-65
2022/10/30 03:11:08;;;;;;;5.13;3.33;;;20.10;70.60;;;;;;6211825;23;20480;-65
2022/10/30 03:13:35;;;;;;;7.25;3.80;;;20.10;70.60;;;;;;6236976;23;20070;-64
2022/10/30 03:16:09;;;;;;;5.70;3.58;;;20.10;70.60;;;;;;6211960;23;20020;-65
2022/10/30 03:18:35;;;;;;;6.15;3.60;;;20.10;70.50;;;;;;6234903;23;20012;-65
2022/10/30 03:21:04;;;;;;;7.50;3.70;;;20.10;70.50;;;;;;6238797;23;20095;-68
2022/10/30 03:23:30;;;;;;;10.70;4.03;;;20.10;70.50;;;;;;6237469;23;20039;-65
2022/10/30 03:25:57;;;;;;;6.63;3.80;;;20.10;70.50;;;;;;6239156;23;20035;-70
2022/10/30 03:28:29;;;;;;;6.47;4.07;;;20.10;70.40;;;;;;6238863;23;20027;-72
2022/10/30 03:30:58;;;;;;;;;;;20.10;70.40;;;;;;6238246;23;20016;-72
2022/10/30 03:33:25;;;;;;;10.68;3.75;;;20.10;70.40;;;;;;6235903;23;19920;-65
2022/10/30 03:35:50;;;;;;;8.63;3.58;;;20.10;70.40;;;;;;6236028;23;20015;-64
2022/10/30 03:38:16;;;;;;;7.40;3.63;;;20.10;70.40;;;;;;6238075;23;20016;-72
2022/10/30 03:40:41;;;;;;;7.15;3.80;;;20.10;70.40;;;;;;6237171;23;20031;-72
2022/10/30 03:43:07;;;;;;;4.93;3.55;;;20.10;70.40;;;;;;6238800;23;20028;-63
2022/10/30 03:45:33;;;;;;;7.63;3.78;;;20.10;70.30;;;;;;6237648;23;20043;-73
2022/10/30 03:48:00;;;;;;;9.93;3.85;;;20.10;70.30;;;;;;6237051;23;20074;-72
2022/10/30 03:50:26;;;;;;;7.90;3.85;;;20.10;70.30;;;;;;6211366;23;20031;-72
2022/10/30 03:52:56;;;;;;;5.05;3.40;;;20.10;70.30;;;;;;6236380;23;20079;-72
2022/10/30 03:55:22;;;;;;;6.75;3.55;;;20.10;70.20;;;;;;6237123;23;20023;-72
2022/10/30 03:57:48;;;;;;;8.25;3.83;;;20.10;70.30;;;;;;6236091;23;20434;-73
2022/10/30 04:00:14;;;;;;;5.25;3.42;;;20.10;70.20;;;;;;6239199;23;20073;-72
2022/10/30 04:02:50;;;;;;;8.35;3.63;;;20.10;70.10;;;;;;6236766;23;20642;-71
2022/10/30 04:05:39;;;;;;;7.13;4.13;;;20.00;70.20;;;;;;6237096;23;20043;-73
2022/10/30 04:08:09;;;;;;;6.53;3.40;;;20.00;70.10;;;;;;6237581;23;20094;-67
2022/10/30 04:10:35;;;;;;;7.30;3.75;;;20.00;70.10;;;;;;6237203;23;20429;-67
2022/10/30 04:13:02;;;;;;;5.97;3.60;;;20.00;70.10;;;;;;6237202;23;20023;-69
2022/10/30 04:15:28;;;;;;;6.55;3.78;;;20.00;70.00;;;;;;6237688;23;20012;-72
2022/10/30 04:17:54;;;;;;;7.65;4.07;;;20.00;70.00;;;;;;6237020;23;20098;-72
2022/10/30 04:20:21;;;;;;;8.35;3.75;;;20.00;70.00;;;;;;6237897;23;20422;-63
2022/10/30 04:22:48;;;;;;;5.57;3.22;;;20.00;70.00;;;;;;6237141;23;20026;-71
2022/10/30 04:25:17;;;;;;;5.85;3.88;;;20.00;70.00;;;;;;6238808;23;20016;-65
2022/10/30 04:27:43;;;;;;;5.72;3.70;;;20.00;70.00;;;;;;6236597;23;20107;-69
2022/10/30 04:30:11;;;;;;;6.20;3.40;;;20.00;70.00;;;;;;6239427;23;20099;-65
2022/10/30 04:32:45;;;;;;;5.78;3.55;;;20.00;70.00;;;;;;6235935;23;20024;-70
2022/10/30 04:35:11;;;;;;;5.95;3.60;;;20.00;69.90;;;;;;6211268;23;20171;-72
2022/10/30 04:37:36;;;;;;;5.25;3.50;;;20.00;70.00;;;;;;6237924;23;20076;-72
2022/10/30 04:40:02;;;;;;;6.15;3.47;;;20.00;69.90;;;;;;6238013;23;20058;-72
2022/10/30 04:42:28;;;;;;;6.65;3.63;;;20.00;69.90;;;;;;6238227;23;20020;-69
2022/10/30 04:44:53;;;;;;;9.05;3.97;;;20.00;69.90;;;;;;6237072;23;20024;-64
2022/10/30 04:47:19;;;;;;;9.60;3.80;;;20.10;70.00;;;;;;6211336;23;20058;-63
2022/10/30 04:49:45;;;;;;;6.93;3.85;;;20.00;70.00;;;;;;6208637;23;20016;-70
2022/10/30 04:52:10;;;;;;;7.65;3.80;;;20.00;70.00;;;;;;6236979;23;20031;-63
2022/10/30 04:54:36;;;;;;;5.47;3.50;;;20.00;69.90;;;;;;6236325;23;20405;-64
2022/10/30 04:57:01;;;;;;;6.80;3.10;;;20.00;69.90;;;;;;6237529;23;20372;-63
2022/10/30 04:59:27;;;;;;;6.72;3.80;;;20.00;70.00;;;;;;6238385;23;20070;-65
2022/10/30 05:01:52;;;;;;;7.50;3.80;;;20.00;69.90;;;;;;6237290;23;20016;-69
2022/10/30 05:04:18;;;;;;;7.78;3.53;;;20.00;69.90;;;;;;6234882;23;20028;-68
2022/10/30 05:06:43;;;;;;;4.60;3.33;;;20.00;69.90;;;;;;6236085;23;20440;-68
2022/10/30 05:09:09;;;;;;;6.38;3.67;;;20.00;69.90;;;;;;6237945;23;20024;-72
2022/10/30 05:11:34;;;;;;;5.43;3.15;;;20.00;69.90;;;;;;6210150;23;20016;-70
2022/10/30 05:14:00;;;;;;;6.07;3.67;;;20.00;69.90;;;;;;6237145;23;20042;-65
2022/10/30 05:16:26;;;;;;;6.85;3.35;;;20.00;69.90;;;;;;6210225;23;20524;-66
2022/10/30 05:18:51;;;;;;;10.50;3.90;;;20.00;69.90;;;;;;6208738;23;20024;-68
2022/10/30 05:21:17;;;;;;;6.10;3.42;;;20.00;69.90;;;;;;6238412;23;20035;-64
2022/10/30 05:23:42;;;;;;;6.07;3.40;;;20.00;69.90;;;;;;6236682;23;20017;-65
2022/10/30 05:26:08;;;;;;;7.10;3.55;;;20.00;69.80;;;;;;6238451;23;20016;-65
2022/10/30 05:28:33;;;;;;;5.68;3.30;;;20.00;69.80;;;;;;6209939;23;20093;-66
2022/10/30 05:30:59;;;;;;;5.03;3.63;;;20.00;69.80;;;;;;6238278;23;20019;-71
2022/10/30 05:33:24;;;;;;;6.88;3.58;;;20.00;69.80;;;;;;6236591;23;20104;-71
2022/10/30 05:35:50;;;;;;;7.28;3.60;;;20.00;69.80;;;;;;6209950;23;20052;-71
2022/10/30 05:38:15;;;;;;;5.78;3.65;;;20.00;69.80;;;;;;6211722;23;20070;-72
2022/10/30 05:40:44;;;;;;;10.88;3.70;;;20.00;69.80;;;;;;6237897;23;20058;-65
2022/10/30 05:43:10;;;;;;;7.07;3.40;;;20.00;69.80;;;;;;6240541;23;20035;-64
2022/10/30 05:45:35;;;;;;;5.78;3.25;;;20.00;69.80;;;;;;6238576;23;20357;-68
2022/10/30 05:48:04;;;;;;;5.82;3.35;;;19.90;69.60;;;;;;6239011;23;20026;-65
2022/10/30 05:50:30;;;;;;;5.93;3.53;;;20.00;69.70;;;;;;6237960;23;20024;-72
2022/10/30 05:52:56;;;;;;;6.45;3.95;;;20.00;69.70;;;;;;6211136;23;20055;-69
2022/10/30 05:55:22;;;;;;;6.18;3.90;;;20.00;69.70;;;;;;6239801;23;20008;-70
2022/10/30 05:57:48;;;;;;;4.80;3.47;;;20.00;69.60;;;;;;6238752;23;20016;-70
2022/10/30 06:00:14;;;;;;;6.25;3.17;;;19.90;69.50;;;;;;6240214;23;20341;-64
2022/10/30 06:02:40;;;;;;;6.45;3.40;;;20.00;69.60;;;;;;6237428;23;20012;-69
2022/10/30 06:05:05;;;;;;;7.63;3.25;;;20.00;69.60;;;;;;6239754;23;20016;-71
2022/10/30 06:07:31;;;;;;;5.68;3.47;;;20.00;69.60;;;;;;6211662;23;20020;-68
2022/10/30 06:09:56;;;;;;;6.65;3.30;;;20.00;69.50;;;;;;6212736;23;20452;-72
2022/10/30 06:12:22;;;;;;;5.75;3.20;;;20.00;69.50;;;;;;6211491;23;20452;-71
2022/10/30 06:14:48;;;;;;;8.43;3.47;;;20.00;69.60;;;;;;6211005;23;20514;-70
2022/10/30 06:17:13;;;;;;;4.90;3.45;;;20.00;69.60;;;;;;6239327;23;20051;-70
2022/10/30 06:19:39;;;;;;;5.70;3.28;;;20.00;69.50;;;;;;6236982;23;20020;-65
2022/10/30 06:22:04;;;;;;;6.10;3.60;;;20.00;69.40;;;;;;6236704;23;20016;-70
2022/10/30 06:24:30;;;;;;;6.30;3.42;;;20.00;69.40;;;;;;6210271;23;20098;-71
2022/10/30 06:26:55;;;;;;;7.43;3.55;;;20.00;69.40;;;;;;6209366;23;20798;-65
2022/10/30 06:29:21;;;;;;;7.22;3.50;;;20.00;69.40;;;;;;6211251;23;20028;-75
2022/10/30 06:31:46;;;;;;;6.38;3.17;;;20.00;69.40;;;;;;6237192;23;20016;-71
2022/10/30 06:34:12;;;;;;;7.53;3.72;;;20.00;69.40;;;;;;6211211;23;20035;-68
2022/10/30 06:36:37;;;;;;;5.82;3.70;;;20.00;69.50;;;;;;6237384;23;20005;-70
2022/10/30 06:39:03;;;;;;;6.43;3.80;;;20.00;69.40;;;;;;6237421;23;20838;-66
2022/10/30 06:41:29;;;;;;;5.57;3.30;;;20.00;69.40;;;;;;6237419;23;20345;-64
2022/10/30 06:43:54;;;;;;;6.53;3.60;;;20.00;69.40;;;;;;6212283;23;20066;-64
2022/10/30 06:46:20;;;;;;;6.30;3.67;;;20.00;69.40;;;;;;6235944;23;20012;-64
2022/10/30 06:48:45;;;;;;;9.43;3.53;;;20.00;69.50;;;;;;6237738;23;20024;-64
2022/10/30 06:51:14;;;;;;;5.57;3.63;;;20.00;69.60;;;;;;6236985;23;20063;-65
2022/10/30 06:53:40;;;;;;;8.18;3.90;;;20.00;69.70;;;;;;6236864;23;20016;-66
2022/10/30 06:56:06;;;;;;;6.35;3.45;;;20.00;69.80;;;;;;6210955;23;20099;-69
2022/10/30 06:58:37;;;;;;;9.68;3.60;;;20.00;69.80;;;;;;6210498;23;20031;-67
2022/10/30 07:01:04;;;;;;;7.53;3.65;;;20.00;69.90;;;;;;6211925;23;20368;-66
2022/10/30 07:03:30;;;;;;;10.18;3.60;;;20.00;69.80;;;;;;6235712;23;20024;-69
2022/10/30 07:05:56;;;;;;;19.38;4.40;;;20.00;69.80;;;;;;6211612;23;20024;-65
2022/10/30 07:08:21;;;;;;;14.65;4.32;;;20.00;69.80;;;;;;6210847;23;20107;-67
2022/10/30 07:10:47;;;;;;;9.70;3.83;;;20.00;69.80;;;;;;6211321;23;20020;-73
2022/10/30 07:13:13;;;;;;;8.70;3.65;;;20.10;69.80;;;;;;6238151;23;20019;-71
2022/10/30 07:15:38;;;;;;;11.35;4.30;;;20.20;69.60;;;;;;6210429;23;20016;-70
2022/10/30 07:18:04;;;;;;;12.70;4.40;;;20.40;69.30;;;;;;6236387;23;20023;-68
2022/10/30 07:20:33;;;;;;;9.63;3.80;;;20.60;69.20;;;;;;6210434;23;20051;-73
2022/10/30 07:23:03;;;;;;;10.02;4.05;;;20.70;69.00;;;;;;6238601;23;20016;-69
2022/10/30 07:25:29;;;;;;;11.00;4.13;;;20.80;68.70;;;;;;6236386;23;20024;-71
2022/10/30 07:27:55;;;;;;;9.57;4.00;;;20.80;68.80;;;;;;6237002;23;20095;-66
2022/10/30 07:30:23;;;;;;;11.20;3.97;;;20.80;68.90;;;;;;6238780;23;20020;-67
2022/10/30 07:33:02;;;;;;;9.82;4.05;;;20.70;69.00;;;;;;6236750;23;20067;-64
2022/10/30 07:35:34;;;;;;;13.40;4.00;;;20.70;69.20;;;;;;6237480;23;20022;-65
2022/10/30 07:38:09;;;;;;;7.28;4.00;;;20.70;69.20;;;;;;6237050;23;20042;-67
2022/10/30 07:40:34;;;;;;;7.32;3.63;;;20.80;69.30;;;;;;6238520;23;20012;-64
2022/10/30 07:43:01;;;;;;;7.97;3.78;;;20.80;69.30;;;;;;6237777;23;20090;-68
2022/10/30 07:45:27;;;;;;;14.23;4.45;;;20.90;69.40;;;;;;6209555;23;20701;-68
2022/10/30 07:47:53;;;;;;;9.27;4.05;;;20.90;69.40;;;;;;6237963;23;20520;-74
2022/10/30 07:50:19;;;;;;;13.45;4.15;;;20.90;69.40;;;;;;6237533;23;20047;-73
2022/10/30 07:52:45;;;;;;;13.00;4.32;;;20.90;69.50;;;;;;6211325;23;20490;-73
2022/10/30 07:55:11;;;;;;;11.73;4.45;;;20.90;69.50;;;;;;6236479;23;20016;-75
2022/10/30 07:57:38;;;;;;;8.13;4.00;;;21.00;69.50;;;;;;6211822;23;20024;-73
2022/10/30 08:00:09;;;;;;;9.32;4.55;;;21.00;69.50;;;;;;6238781;23;20016;-71
2022/10/30 08:02:35;;;;;;;9.60;3.85;;;21.00;69.60;;;;;;6236854;23;20067;-70
2022/10/30 08:05:02;;;;;;;12.10;4.57;;;21.00;69.60;;;;;;6204786;23;20651;-73
2022/10/30 08:07:31;;;;;;;10.23;4.20;;;21.00;69.70;;;;;;6206338;23;20448;-74
2022/10/30 08:09:57;;;;;;;11.02;4.28;;;21.00;69.80;;;;;;6208337;23;20021;-71
2022/10/30 08:12:23;;;;;;;8.30;4.72;;;21.00;69.80;;;;;;6207097;23;20020;-74
2022/10/30 08:14:49;;;;;;;9.35;4.30;;;21.00;69.80;;;;;;6208118;23;20372;-66
2022/10/30 08:17:15;;;;;;;9.13;4.28;;;20.90;69.90;;;;;;6205266;23;20016;-75
2022/10/30 08:19:40;;;;;;;13.32;5.35;;;20.90;69.90;;;;;;6206230;23;20148;-74
2022/10/30 08:22:06;;;;;;;12.68;4.90;;;20.90;69.90;;;;;;6205379;23;20476;-65
2022/10/30 08:24:31;;;;;;;16.77;5.05;;;20.90;69.80;;;;;;6206651;23;20093;-65
2022/10/30 08:26:57;;;;;;;10.55;4.72;;;20.90;69.90;;;;;;6207743;23;20012;-72
2022/10/30 08:29:23;;;;;;;9.57;4.55;;;20.90;69.80;;;;;;6205414;23;20090;-65
2022/10/30 08:31:49;;;;;;;7.55;4.80;;;20.90;69.80;;;;;;6206229;23;20025;-64
2022/10/30 08:34:15;;;;;;;13.75;5.38;;;21.00;69.90;;;;;;6205043;23;20013;-80
2022/10/30 08:36:40;;;;;;;10.13;4.65;;;21.00;69.90;;;;;;6206734;23;20091;-65
2022/10/30 08:39:06;;;;;;;9.18;4.78;;;21.00;70.00;;;;;;6206943;23;20398;-74
2022/10/30 08:41:31;;;;;;;10.10;4.53;;;21.00;70.00;;;;;;6207128;23;20020;-74
2022/10/30 08:43:57;;;;;;;12.13;4.63;;;21.00;70.00;;;;;;6205972;23;20019;-75
2022/10/30 08:46:23;;;;;;;16.85;4.85;;;21.00;70.00;;;;;;6205323;23;20154;-75
2022/10/30 08:48:48;;;;;;;13.70;4.68;;;21.00;70.00;;;;;;6204820;23;20024;-74
2022/10/30 08:51:14;;;;;;;10.55;4.35;;;21.00;70.00;;;;;;6206294;23;20408;-75
2022/10/30 08:53:39;;;;;;;11.85;4.63;;;21.00;70.00;;;;;;6180479;23;20021;-74
2022/10/30 08:56:05;;;;;;;11.80;4.68;;;21.10;70.10;;;;;;6204880;23;20015;-70
2022/10/30 08:58:31;;;;;;;11.70;4.70;;;21.10;70.10;;;;;;6204342;23;20051;-74
2022/10/30 09:00:56;;;;;;;9.68;4.45;;;21.10;70.10;;;;;;6204688;23;20468;-73
2022/10/30 09:03:22;;;;;;;11.13;4.90;;;21.10;70.20;;;;;;6205222;23;20096;-73
2022/10/30 09:05:48;;;;;;;10.43;5.00;;;21.10;70.40;;;;;;6222628;23;20047;-74
2022/10/30 09:08:14;;;;;;;9.82;5.30;;;21.10;70.30;;;;;;6236410;23;20020;-73
2022/10/30 09:10:40;;;;;;;7.75;4.20;;;21.10;70.40;;;;;;6237563;23;20016;-74
2022/10/30 09:13:06;;;;;;;9.65;4.50;;;21.10;70.50;;;;;;6208715;23;20023;-72
2022/10/30 09:15:32;;;;;;;7.63;4.75;;;21.10;70.50;;;;;;6236567;23;20515;-72
2022/10/30 09:18:02;;;;;;;9.80;4.57;;;21.10;70.50;;;;;;6235143;23;20016;-67
2022/10/30 09:20:29;;;;;;;7.07;4.22;;;21.20;70.60;;;;;;6234603;23;20012;-71
2022/10/30 09:22:55;;;;;;;8.95;4.68;;;21.20;70.50;;;;;;6236518;23;20016;-75
2022/10/30 09:25:21;;;;;;;10.63;5.18;;;21.20;70.50;;;;;;6236094;23;20020;-73
2022/10/30 09:27:46;;;;;;;10.27;4.85;;;21.20;70.50;;;;;;6237604;23;20038;-72
2022/10/30 09:30:13;;;;;;;9.65;4.72;;;21.20;70.50;;;;;;6234277;23;20016;-68
2022/10/30 09:32:39;;;;;;;10.02;4.57;;;21.20;71.30;;;;;;6236303;23;20016;-71
2022/10/30 09:35:07;;;;;;;10.25;4.22;;;21.20;70.60;;;;;;6205237;23;20039;-73
2022/10/30 09:37:34;;;;;;;11.73;4.50;;;21.20;70.70;;;;;;6233339;23;20459;-74
2022/10/30 09:40:00;;;;;;;8.53;4.23;;;21.20;70.60;;;;;;6210842;23;20456;-72
2022/10/30 09:42:43;;;;;;;9.95;5.22;;;21.20;70.60;;;;;;6235927;23;20023;-71
2022/10/30 09:45:27;;;;;;;10.05;4.60;;;21.20;70.70;;;;;;6237630;23;20020;-74
2022/10/30 09:48:20;;;;;;;6.95;4.30;;;21.20;70.60;;;;;;6235528;23;20024;-72
2022/10/30 09:50:56;;;;;;;12.98;4.63;;;21.20;70.60;;;;;;6236091;23;20012;-67
2022/10/30 09:53:27;;;;;;;12.63;5.38;;;21.30;70.60;;;;;;6186051;23;20027;-66
2022/10/30 09:56:05;;;;;;;10.35;5.05;;;21.20;70.60;;;;;;6234474;23;20024;-67
2022/10/30 09:58:38;;;;;;;9.88;6.00;;;21.20;70.50;;;;;;6210645;23;20027;-64
2022/10/30 10:01:35;;;;;;;9.82;5.40;;;21.20;70.20;;;;;;6209987;23;20470;-65
2022/10/30 10:04:14;;;;;;;13.48;5.70;;;21.10;70.00;;;;;;6234907;23;20106;-66
2022/10/30 10:06:45;;;;;;;16.95;6.38;;;21.10;70.00;;;;;;6236152;23;20074;-69
2022/10/30 10:09:21;;;;;;;16.38;6.40;;;21.10;70.00;;;;;;6233327;23;20118;-75
2022/10/30 10:14:31;;;;;;;13.73;6.65;;;21.10;69.60;;;;;;6219092;22;20106;-77
2022/10/30 10:17:02;;;;;;;19.30;6.80;;;21.10;69.20;;;;;;6207141;23;20115;-76
2022/10/30 10:19:54;;;;;;;20.13;7.07;;;21.00;68.90;;;;;;6208972;23;20051;-77
2022/10/30 10:22:28;;;;;;;12.68;6.63;;;21.10;68.50;;;;;;6184603;23;20020;-76
2022/10/30 10:24:54;;;;;;;14.70;6.78;;;21.00;68.50;;;;;;6236684;23;20470;-77
2022/10/30 10:27:40;;;;;;;18.55;6.22;;;21.00;68.60;;;;;;6211262;23;20024;-76
2022/10/30 10:30:13;;;;;;;15.63;6.63;;;21.00;68.50;;;;;;6209460;23;20016;-74
2022/10/30 10:32:56;;;;;;;12.38;6.53;;;21.00;68.60;;;;;;6209826;23;20048;-73
2022/10/30 10:35:51;;;;;;;18.70;6.45;;;21.00;68.70;;;;;;6185207;23;20062;-72
2022/10/30 10:38:40;;;;;;;15.38;6.10;;;21.10;68.60;;;;;;6209722;23;20024;-76
2022/10/30 10:41:18;;;;;;;16.08;5.90;;;21.10;68.70;;;;;;6211017;23;20020;-75
2022/10/30 10:44:24;;;;;;;20.57;6.03;;;21.10;68.60;;;;;;6234642;23;20070;-77
2022/10/30 10:47:31;;;;;;;13.65;5.90;;;21.10;68.70;;;;;;6175284;23;20380;-75
2022/10/30 10:50:18;;;;;;;18.02;6.15;;;21.20;68.60;;;;;;6208676;23;20739;-76
2022/10/30 10:52:53;;;;;;;14.30;5.60;;;21.20;68.50;;;;;;6187073;23;20020;-76
2022/10/30 10:55:26;;;;;;;17.38;5.93;;;21.20;68.40;;;;;;6210442;23;20016;-79
2022/10/30 10:57:55;;;;;;;13.00;5.85;;;21.30;68.40;;;;;;6211755;23;20027;-75
2022/10/30 11:00:27;;;;;;;12.10;5.18;;;21.30;68.40;;;;;;6210139;23;20020;-77
2022/10/30 11:03:13;;;;;;;15.38;5.55;;;21.30;68.30;;;;;;6210860;23;20012;-77
2022/10/30 11:05:45;;;;;;;16.15;5.90;;;21.30;68.20;;;;;;6210324;23;20201;-77
2022/10/30 11:08:17;;;;;;;14.98;5.35;;;21.30;68.90;;;;;;6185605;23;20016;-77
2022/10/30 11:10:43;;;;;;;16.08;5.13;;;21.30;68.10;;;;;;6187306;23;20023;-76
2022/10/30 11:13:15;;;;;;;13.77;5.68;;;21.30;68.10;;;;;;6210704;23;20020;-77
2022/10/30 11:15:46;;;;;;;11.27;5.00;;;21.40;68.10;;;;;;6212681;23;20020;-77
2022/10/30 11:18:14;;;;;;;11.15;5.53;;;21.40;68.10;;;;;;6209846;23;20023;-76
2022/10/30 11:20:49;;;;;;;;;;;21.40;68.10;;;;;;6238634;23;20020;-77
2022/10/30 11:23:33;;;;;;;14.52;5.97;;;21.40;68.10;;;;;;6238784;23;19920;-76
2022/10/30 11:26:01;;;;;;;15.93;5.30;;;21.30;68.10;;;;;;6184238;23;20460;-76
2022/10/30 11:28:34;;;;;;;20.40;5.75;;;21.30;68.10;;;;;;6238422;23;20407;-76
2022/10/30 11:31:20;;;;;;;11.93;5.47;;;21.30;68.00;;;;;;6237185;23;20026;-76
2022/10/30 11:33:46;;;;;;;13.32;5.07;;;21.40;68.10;;;;;;6210644;23;20026;-76
2022/10/30 11:36:18;;;;;;;9.25;5.32;;;21.30;68.10;;;;;;6238696;23;20099;-76
2022/10/30 11:38:44;;;;;;;8.20;5.13;;;21.30;68.10;;;;;;6209361;23;20069;-76
2022/10/30 11:41:10;;;;;;;13.45;4.90;;;21.30;68.10;;;;;;6186523;23;20439;-75
2022/10/30 11:43:39;;;;;;;15.57;5.00;;;21.30;68.10;;;;;;6210596;23;20012;-76
2022/10/30 11:46:08;;;;;;;10.57;5.07;;;21.40;68.20;;;;;;6212556;23;20340;-76
2022/10/30 11:48:42;;;;;;;9.02;5.13;;;21.30;68.20;;;;;;6236852;23;20607;-76
2022/10/30 11:51:07;;;;;;;14.55;5.20;;;21.30;68.20;;;;;;6237974;23;20023;-76
2022/10/30 11:53:46;;;;;;;11.35;5.25;;;21.30;68.20;;;;;;6238886;23;20019;-77
2022/10/30 11:56:19;;;;;;;13.40;5.15;;;21.30;68.10;;;;;;6237407;23;20023;-76
2022/10/30 11:58:49;;;;;;;11.70;5.38;;;21.30;68.20;;;;;;6211791;23;20020;-76
2022/10/30 12:01:31;;;;;;;9.77;5.50;;;21.40;68.20;;;;;;6237172;23;20020;-76
2022/10/30 12:04:14;;;;;;;11.50;4.68;;;21.30;68.20;;;;;;6237260;23;20329;-75
2022/10/30 12:06:40;;;;;;;8.35;5.15;;;21.30;68.20;;;;;;6237770;23;20087;-77
2022/10/30 12:09:22;;;;;;;10.32;4.85;;;21.40;68.20;;;;;;6236773;23;20391;-77
2022/10/30 12:11:48;;;;;;;9.93;5.50;;;21.40;68.10;;;;;;6237787;23;20069;-75
2022/10/30 12:14:22;;;;;;;14.15;4.95;;;21.30;68.00;;;;;;6209687;23;20129;-75
2022/10/30 12:16:54;;;;;;;10.02;4.78;;;21.40;68.00;;;;;;6237825;23;20123;-76
2022/10/30 12:19:22;;;;;;;9.52;5.00;;;21.40;68.00;;;;;;6181635;23;20023;-77
2022/10/30 12:21:52;;;;;;;10.02;4.43;;;21.30;68.00;;;;;;6184667;23;20091;-76
2022/10/30 12:24:35;;;;;;;9.82;4.32;;;21.30;68.00;;;;;;6185582;23;20092;-76
2022/10/30 12:27:04;;;;;;;9.68;4.68;;;21.40;68.00;;;;;;6209136;23;20676;-76
2022/10/30 12:29:54;;;;;;;12.20;4.57;;;21.30;68.00;;;;;;6237717;23;20016;-76
2022/10/30 12:32:22;;;;;;;12.35;4.70;;;21.30;68.00;;;;;;6237037;23;20432;-76
2022/10/30 12:35:04;;;;;;;8.45;4.47;;;21.30;68.10;;;;;;6208047;23;20095;-76
2022/10/30 12:37:40;;;;;;;11.52;4.85;;;21.30;68.20;;;;;;6209169;23;20059;-75
2022/10/30 12:40:17;;;;;;;8.73;4.60;;;21.30;68.20;;;;;;6208304;23;20024;-75
2022/10/30 12:43:17;;;;;;;10.47;4.77;;;21.20;68.30;;;;;;6210272;23;20070;-73
2022/10/30 12:45:45;;;;;;;12.25;5.00;;;21.20;68.30;;;;;;6210136;23;20020;-76
2022/10/30 12:48:37;;;;;;;8.95;4.75;;;21.20;68.50;;;;;;6233804;23;20482;-76
2022/10/30 12:51:26;;;;;;;13.98;5.32;;;21.20;68.60;;;;;;6209282;23;20024;-76
2022/10/30 12:54:20;;;;;;;18.40;4.97;;;21.20;68.80;;;;;;6236917;23;20099;-76
2022/10/30 12:56:52;;;;;;;16.15;4.93;;;21.20;68.80;;;;;;6208658;23;20547;-75
2022/10/30 12:59:50;;;;;;;15.25;5.20;;;21.20;68.90;;;;;;6210059;23;20048;-76